sensor_id;sensor_type;location;lat;lon;timestamp;P1;durP1;ratioP1;P2;durP2;ratioP2
38779;SDS011;29273;49.962;9.768;2023-03-01T00:01:13;6.38;;;5.30;;
38779;SDS011;29273;49.962;9.768;2023-03-01T00:03:41;6.57;;;4.78;;
38779;SDS011;29273;49.962;9.768;2023-03-01T00:06:07;6.72;;;5.10;;
38779;SDS011;29273;49.962;9.768;2023-03-01T00:08:33;6.45;;;5.15;;
38779;SDS011;29273;49.962;9.768;2023-03-01T00:11:00;7.20;;;4.97;;
38779;SDS011;29273;49.962;9.768;2023-03-01T00:13:30;7.43;;;5.10;;
38779;SDS011;29273;49.962;9.768;2023-03-01T00:15:56;6.97;;;4.95;;
38779;SDS011;29273;49.962;9.768;2023-03-01T00:18:22;6.72;;;4.72;;
38779;SDS011;29273;49.962;9.768;2023-03-01T00:20:51;6.53;;;4.90;;
38779;SDS011;29273;49.962;9.768;2023-03-01T00:23:18;6.68;;;5.10;;
38779;SDS011;29273;49.962;9.768;2023-03-01T00:25:44;6.38;;;5.05;;
38779;SDS011;29273;49.962;9.768;2023-03-01T00:28:09;7.13;;;4.88;;
38779;SDS011;29273;49.962;9.768;2023-03-01T00:30:35;7.80;;;5.38;;
38779;SDS011;29273;49.962;9.768;2023-03-01T00:33:00;5.65;;;4.88;;
38779;SDS011;29273;49.962;9.768;2023-03-01T00:35:26;7.07;;;4.80;;
38779;SDS011;29273;49.962;9.768;2023-03-01T00:37:51;6.70;;;5.18;;
38779;SDS011;29273;49.962;9.768;2023-03-01T00:40:29;5.85;;;4.60;;
38779;SDS011;29273;49.962;9.768;2023-03-01T00:42:56;7.25;;;5.13;;
38779;SDS011;29273;49.962;9.768;2023-03-01T00:45:23;5.50;;;4.72;;
38779;SDS011;29273;49.962;9.768;2023-03-01T00:47:49;5.80;;;4.32;;
38779;SDS011;29273;49.962;9.768;2023-03-01T00:50:15;6.07;;;4.90;;
38779;SDS011;29273;49.962;9.768;2023-03-01T00:52:41;6.32;;;4.65;;
38779;SDS011;29273;49.962;9.768;2023-03-01T00:55:07;7.38;;;5.10;;
38779;SDS011;29273;49.962;9.768;2023-03-01T00:57:33;7.15;;;5.38;;
38779;SDS011;29273;49.962;9.768;2023-03-01T00:59:58;6.25;;;5.15;;
38779;SDS011;29273;49.962;9.768;2023-03-01T01:02:24;6.93;;;5.25;;
38779;SDS011;29273;49.962;9.768;2023-03-01T01:04:50;7.80;;;5.63;;
38779;SDS011;29273;49.962;9.768;2023-03-01T01:07:16;7.15;;;5.40;;
38779;SDS011;29273;49.962;9.768;2023-03-01T01:09:43;7.10;;;5.43;;
38779;SDS011;29273;49.962;9.768;2023-03-01T01:12:08;7.53;;;5.35;;
38779;SDS011;29273;49.962;9.768;2023-03-01T01:14:34;7.47;;;5.53;;
38779;SDS011;29273;49.962;9.768;2023-03-01T01:17:00;6.47;;;4.85;;
38779;SDS011;29273;49.962;9.768;2023-03-01T01:19:26;7.70;;;5.70;;
38779;SDS011;29273;49.962;9.768;2023-03-01T01:21:53;6.50;;;5.05;;
38779;SDS011;29273;49.962;9.768;2023-03-01T01:24:18;5.75;;;5.13;;
38779;SDS011;29273;49.962;9.768;2023-03-01T01:26:44;6.95;;;5.47;;
38779;SDS011;29273;49.962;9.768;2023-03-01T01:29:11;6.20;;;5.05;;
38779;SDS011;29273;49.962;9.768;2023-03-01T01:31:37;7.75;;;5.22;;
38779;SDS011;29273;49.962;9.768;2023-03-01T01:34:05;6.82;;;5.25;;
38779;SDS011;29273;49.962;9.768;2023-03-01T01:36:32;7.45;;;5.50;;
38779;SDS011;29273;49.962;9.768;2023-03-01T01:38:58;6.72;;;5.32;;
38779;SDS011;29273;49.962;9.768;2023-03-01T01:41:26;6.88;;;5.45;;
38779;SDS011;29273;49.962;9.768;2023-03-01T01:46:47;7.40;;;5.45;;
38779;SDS011;29273;49.962;9.768;2023-03-01T01:49:25;7.25;;;5.25;;
38779;SDS011;29273;49.962;9.768;2023-03-01T01:52:02;7.75;;;5.72;;
38779;SDS011;29273;49.962;9.768;2023-03-01T01:54:42;7.18;;;5.60;;
38779;SDS011;29273;49.962;9.768;2023-03-01T01:57:18;7.00;;;5.28;;
38779;SDS011;29273;49.962;9.768;2023-03-01T01:59:49;7.38;;;5.65;;
38779;SDS011;29273;49.962;9.768;2023-03-01T02:02:18;8.07;;;6.13;;
38779;SDS011;29273;49.962;9.768;2023-03-01T02:04:44;8.20;;;5.90;;
38779;SDS011;29273;49.962;9.768;2023-03-01T02:09:45;6.45;;;5.30;;
38779;SDS011;29273;49.962;9.768;2023-03-01T02:12:13;7.90;;;6.10;;
38779;SDS011;29273;49.962;9.768;2023-03-01T02:14:40;7.03;;;5.63;;
38779;SDS011;29273;49.962;9.768;2023-03-01T02:17:05;7.45;;;5.63;;
38779;SDS011;29273;49.962;9.768;2023-03-01T02:22:18;6.60;;;5.35;;
38779;SDS011;29273;49.962;9.768;2023-03-01T02:27:22;8.00;;;6.25;;
38779;SDS011;29273;49.962;9.768;2023-03-01T02:29:54;7.90;;;6.13;;
38779;SDS011;29273;49.962;9.768;2023-03-01T02:32:19;7.78;;;5.88;;
38779;SDS011;29273;49.962;9.768;2023-03-01T02:34:53;7.50;;;5.80;;
38779;SDS011;29273;49.962;9.768;2023-03-01T02:37:20;6.93;;;5.70;;
38779;SDS011;29273;49.962;9.768;2023-03-01T02:39:59;7.93;;;5.88;;
38779;SDS011;29273;49.962;9.768;2023-03-01T02:42:33;6.32;;;5.38;;
38779;SDS011;29273;49.962;9.768;2023-03-01T02:45:03;7.63;;;5.75;;
38779;SDS011;29273;49.962;9.768;2023-03-01T02:47:29;6.78;;;5.70;;
38779;SDS011;29273;49.962;9.768;2023-03-01T02:49:55;6.90;;;5.15;;
38779;SDS011;29273;49.962;9.768;2023-03-01T02:52:39;8.00;;;5.85;;
38779;SDS011;29273;49.962;9.768;2023-03-01T02:55:14;7.57;;;5.90;;
38779;SDS011;29273;49.962;9.768;2023-03-01T02:57:44;7.50;;;5.80;;
38779;SDS011;29273;49.962;9.768;2023-03-01T03:00:20;8.20;;;5.95;;
38779;SDS011;29273;49.962;9.768;2023-03-01T03:02:50;7.30;;;5.63;;
38779;SDS011;29273;49.962;9.768;2023-03-01T03:05:20;8.07;;;6.30;;
38779;SDS011;29273;49.962;9.768;2023-03-01T03:07:51;7.63;;;6.20;;
38779;SDS011;29273;49.962;9.768;2023-03-01T03:10:22;8.73;;;5.97;;
38779;SDS011;29273;49.962;9.768;2023-03-01T03:13:00;7.28;;;6.07;;
38779;SDS011;29273;49.962;9.768;2023-03-01T03:15:29;8.43;;;6.47;;
38779;SDS011;29273;49.962;9.768;2023-03-01T03:17:55;7.80;;;5.70;;
38779;SDS011;29273;49.962;9.768;2023-03-01T03:20:24;6.70;;;5.55;;
38779;SDS011;29273;49.962;9.768;2023-03-01T03:22:52;8.82;;;6.30;;
38779;SDS011;29273;49.962;9.768;2023-03-01T03:25:20;7.47;;;6.13;;
38779;SDS011;29273;49.962;9.768;2023-03-01T03:27:47;7.10;;;5.57;;
38779;SDS011;29273;49.962;9.768;2023-03-01T03:32:43;8.90;;;6.47;;
38779;SDS011;29273;49.962;9.768;2023-03-01T03:35:27;8.05;;;6.05;;
38779;SDS011;29273;49.962;9.768;2023-03-01T03:37:58;7.72;;;5.80;;
38779;SDS011;29273;49.962;9.768;2023-03-01T03:40:38;7.88;;;6.13;;
38779;SDS011;29273;49.962;9.768;2023-03-01T03:43:09;8.10;;;5.88;;
38779;SDS011;29273;49.962;9.768;2023-03-01T03:45:37;9.15;;;6.15;;
38779;SDS011;29273;49.962;9.768;2023-03-01T03:48:03;8.05;;;5.57;;
38779;SDS011;29273;49.962;9.768;2023-03-01T03:50:30;7.75;;;6.05;;
38779;SDS011;29273;49.962;9.768;2023-03-01T03:52:56;8.73;;;5.97;;
38779;SDS011;29273;49.962;9.768;2023-03-01T03:55:22;7.57;;;5.97;;
38779;SDS011;29273;49.962;9.768;2023-03-01T03:57:48;8.00;;;5.82;;
38779;SDS011;29273;49.962;9.768;2023-03-01T04:00:20;7.47;;;5.57;;
38779;SDS011;29273;49.962;9.768;2023-03-01T04:02:47;8.02;;;5.93;;
38779;SDS011;29273;49.962;9.768;2023-03-01T04:05:14;7.78;;;5.53;;
38779;SDS011;29273;49.962;9.768;2023-03-01T04:07:41;6.70;;;5.60;;
38779;SDS011;29273;49.962;9.768;2023-03-01T04:10:09;8.30;;;5.82;;
38779;SDS011;29273;49.962;9.768;2023-03-01T04:12:36;7.10;;;5.55;;
38779;SDS011;29273;49.962;9.768;2023-03-01T04:15:02;7.65;;;6.20;;
38779;SDS011;29273;49.962;9.768;2023-03-01T04:17:38;8.35;;;6.05;;
38779;SDS011;29273;49.962;9.768;2023-03-01T04:20:05;8.88;;;6.13;;
38779;SDS011;29273;49.962;9.768;2023-03-01T04:22:32;8.95;;;6.20;;
38779;SDS011;29273;49.962;9.768;2023-03-01T04:24:58;7.30;;;6.03;;
38779;SDS011;29273;49.962;9.768;2023-03-01T04:27:27;6.88;;;5.60;;
38779;SDS011;29273;49.962;9.768;2023-03-01T04:29:52;7.70;;;6.18;;
38779;SDS011;29273;49.962;9.768;2023-03-01T04:32:17;7.85;;;6.03;;
38779;SDS011;29273;49.962;9.768;2023-03-01T04:34:43;6.45;;;5.20;;
38779;SDS011;29273;49.962;9.768;2023-03-01T04:37:09;7.07;;;5.90;;
38779;SDS011;29273;49.962;9.768;2023-03-01T04:39:34;6.25;;;5.40;;
38779;SDS011;29273;49.962;9.768;2023-03-01T04:42:10;9.05;;;6.30;;
38779;SDS011;29273;49.962;9.768;2023-03-01T04:44:39;7.50;;;5.65;;
38779;SDS011;29273;49.962;9.768;2023-03-01T04:47:04;8.05;;;6.28;;
38779;SDS011;29273;49.962;9.768;2023-03-01T04:49:30;7.82;;;6.15;;
38779;SDS011;29273;49.962;9.768;2023-03-01T04:51:56;7.82;;;5.80;;
38779;SDS011;29273;49.962;9.768;2023-03-01T04:54:30;7.80;;;6.07;;
38779;SDS011;29273;49.962;9.768;2023-03-01T04:56:57;7.18;;;5.97;;
38779;SDS011;29273;49.962;9.768;2023-03-01T04:59:23;7.90;;;5.93;;
38779;SDS011;29273;49.962;9.768;2023-03-01T05:01:49;7.25;;;5.78;;
38779;SDS011;29273;49.962;9.768;2023-03-01T05:04:15;8.98;;;6.30;;
38779;SDS011;29273;49.962;9.768;2023-03-01T05:06:41;6.70;;;5.28;;
38779;SDS011;29273;49.962;9.768;2023-03-01T05:09:07;9.55;;;6.25;;
38779;SDS011;29273;49.962;9.768;2023-03-01T05:11:32;6.82;;;5.70;;
38779;SDS011;29273;49.962;9.768;2023-03-01T05:14:01;6.50;;;5.70;;
38779;SDS011;29273;49.962;9.768;2023-03-01T05:16:27;8.07;;;6.32;;
38779;SDS011;29273;49.962;9.768;2023-03-01T05:18:53;8.00;;;5.85;;
38779;SDS011;29273;49.962;9.768;2023-03-01T05:21:20;7.55;;;5.60;;
38779;SDS011;29273;49.962;9.768;2023-03-01T05:23:46;8.43;;;5.93;;
38779;SDS011;29273;49.962;9.768;2023-03-01T05:26:12;7.82;;;5.80;;
38779;SDS011;29273;49.962;9.768;2023-03-01T05:28:38;7.90;;;5.22;;
38779;SDS011;29273;49.962;9.768;2023-03-01T05:31:05;8.05;;;5.93;;
38779;SDS011;29273;49.962;9.768;2023-03-01T05:33:37;6.45;;;5.47;;
38779;SDS011;29273;49.962;9.768;2023-03-01T05:36:04;7.47;;;5.47;;
38779;SDS011;29273;49.962;9.768;2023-03-01T05:38:34;6.53;;;5.22;;
38779;SDS011;29273;49.962;9.768;2023-03-01T05:41:00;7.97;;;6.10;;
38779;SDS011;29273;49.962;9.768;2023-03-01T05:43:26;9.43;;;6.38;;
38779;SDS011;29273;49.962;9.768;2023-03-01T05:45:57;6.22;;;5.32;;
38779;SDS011;29273;49.962;9.768;2023-03-01T05:48:22;8.23;;;5.78;;
38779;SDS011;29273;49.962;9.768;2023-03-01T05:50:48;7.30;;;5.90;;
38779;SDS011;29273;49.962;9.768;2023-03-01T05:53:15;7.50;;;5.97;;
38779;SDS011;29273;49.962;9.768;2023-03-01T05:55:42;8.02;;;6.00;;
38779;SDS011;29273;49.962;9.768;2023-03-01T05:58:12;7.80;;;6.00;;
38779;SDS011;29273;49.962;9.768;2023-03-01T06:00:40;8.13;;;5.70;;
38779;SDS011;29273;49.962;9.768;2023-03-01T06:03:09;9.98;;;5.72;;
38779;SDS011;29273;49.962;9.768;2023-03-01T06:05:35;9.40;;;6.30;;
38779;SDS011;29273;49.962;9.768;2023-03-01T06:08:01;7.15;;;5.68;;
38779;SDS011;29273;49.962;9.768;2023-03-01T06:10:27;7.80;;;5.78;;
38779;SDS011;29273;49.962;9.768;2023-03-01T06:12:53;9.18;;;5.80;;
38779;SDS011;29273;49.962;9.768;2023-03-01T06:15:19;9.02;;;6.20;;
38779;SDS011;29273;49.962;9.768;2023-03-01T06:17:45;8.35;;;5.90;;
38779;SDS011;29273;49.962;9.768;2023-03-01T06:20:15;7.88;;;5.95;;
38779;SDS011;29273;49.962;9.768;2023-03-01T06:22:45;7.75;;;6.10;;
38779;SDS011;29273;49.962;9.768;2023-03-01T06:25:11;7.88;;;6.03;;
38779;SDS011;29273;49.962;9.768;2023-03-01T06:27:39;7.88;;;6.00;;
38779;SDS011;29273;49.962;9.768;2023-03-01T06:30:05;9.23;;;6.25;;
38779;SDS011;29273;49.962;9.768;2023-03-01T06:32:32;8.00;;;5.65;;
38779;SDS011;29273;49.962;9.768;2023-03-01T06:34:57;7.68;;;5.70;;
38779;SDS011;29273;49.962;9.768;2023-03-01T06:37:24;7.70;;;5.78;;
38779;SDS011;29273;49.962;9.768;2023-03-01T06:39:50;7.35;;;5.40;;
38779;SDS011;29273;49.962;9.768;2023-03-01T06:42:15;8.60;;;6.25;;
38779;SDS011;29273;49.962;9.768;2023-03-01T06:44:41;8.93;;;6.05;;
38779;SDS011;29273;49.962;9.768;2023-03-01T06:47:07;8.98;;;6.25;;
38779;SDS011;29273;49.962;9.768;2023-03-01T06:49:32;7.57;;;5.57;;
38779;SDS011;29273;49.962;9.768;2023-03-01T06:51:58;8.63;;;5.90;;
38779;SDS011;29273;49.962;9.768;2023-03-01T06:54:23;8.82;;;5.57;;
38779;SDS011;29273;49.962;9.768;2023-03-01T06:56:49;7.55;;;5.40;;
38779;SDS011;29273;49.962;9.768;2023-03-01T06:59:15;7.28;;;5.70;;
38779;SDS011;29273;49.962;9.768;2023-03-01T07:01:41;7.25;;;5.93;;
38779;SDS011;29273;49.962;9.768;2023-03-01T07:04:06;8.15;;;6.10;;
38779;SDS011;29273;49.962;9.768;2023-03-01T07:06:32;8.02;;;5.97;;
38779;SDS011;29273;49.962;9.768;2023-03-01T07:08:57;8.23;;;6.13;;
38779;SDS011;29273;49.962;9.768;2023-03-01T07:11:23;7.28;;;5.85;;
38779;SDS011;29273;49.962;9.768;2023-03-01T07:13:48;8.95;;;6.28;;
38779;SDS011;29273;49.962;9.768;2023-03-01T07:16:14;7.35;;;5.70;;
38779;SDS011;29273;49.962;9.768;2023-03-01T07:18:40;7.25;;;5.90;;
38779;SDS011;29273;49.962;9.768;2023-03-01T07:21:06;7.40;;;5.65;;
38779;SDS011;29273;49.962;9.768;2023-03-01T07:23:33;8.48;;;6.72;;
38779;SDS011;29273;49.962;9.768;2023-03-01T07:25:58;8.18;;;6.15;;
38779;SDS011;29273;49.962;9.768;2023-03-01T07:28:25;7.55;;;6.00;;
38779;SDS011;29273;49.962;9.768;2023-03-01T07:30:51;8.77;;;6.28;;
38779;SDS011;29273;49.962;9.768;2023-03-01T07:33:17;8.13;;;6.38;;
38779;SDS011;29273;49.962;9.768;2023-03-01T07:35:43;9.05;;;6.20;;
38779;SDS011;29273;49.962;9.768;2023-03-01T07:38:08;8.60;;;6.65;;
38779;SDS011;29273;49.962;9.768;2023-03-01T07:40:34;8.18;;;6.75;;
38779;SDS011;29273;49.962;9.768;2023-03-01T07:42:59;8.02;;;6.22;;
38779;SDS011;29273;49.962;9.768;2023-03-01T07:45:26;9.27;;;6.70;;
38779;SDS011;29273;49.962;9.768;2023-03-01T07:47:52;8.10;;;6.28;;
38779;SDS011;29273;49.962;9.768;2023-03-01T07:50:18;10.10;;;7.03;;
38779;SDS011;29273;49.962;9.768;2023-03-01T07:52:44;8.50;;;6.55;;
38779;SDS011;29273;49.962;9.768;2023-03-01T07:55:11;10.23;;;7.55;;
38779;SDS011;29273;49.962;9.768;2023-03-01T07:57:37;9.13;;;7.00;;
38779;SDS011;29273;49.962;9.768;2023-03-01T08:00:03;8.50;;;6.53;;
38779;SDS011;29273;49.962;9.768;2023-03-01T08:02:37;9.77;;;7.35;;
38779;SDS011;29273;49.962;9.768;2023-03-01T08:05:03;7.65;;;6.50;;
38779;SDS011;29273;49.962;9.768;2023-03-01T08:07:29;8.93;;;6.88;;
38779;SDS011;29273;49.962;9.768;2023-03-01T08:09:54;9.75;;;7.38;;
38779;SDS011;29273;49.962;9.768;2023-03-01T08:12:20;8.95;;;6.65;;
38779;SDS011;29273;49.962;9.768;2023-03-01T08:14:45;8.60;;;7.15;;
38779;SDS011;29273;49.962;9.768;2023-03-01T08:17:13;10.40;;;7.40;;
38779;SDS011;29273;49.962;9.768;2023-03-01T08:19:39;8.60;;;6.55;;
38779;SDS011;29273;49.962;9.768;2023-03-01T08:22:04;9.60;;;7.22;;
38779;SDS011;29273;49.962;9.768;2023-03-01T08:24:30;8.95;;;6.78;;
38779;SDS011;29273;49.962;9.768;2023-03-01T08:26:55;12.48;;;7.40;;
38779;SDS011;29273;49.962;9.768;2023-03-01T08:29:21;9.75;;;7.65;;
38779;SDS011;29273;49.962;9.768;2023-03-01T08:31:47;8.77;;;6.72;;
38779;SDS011;29273;49.962;9.768;2023-03-01T08:34:14;9.02;;;6.65;;
38779;SDS011;29273;49.962;9.768;2023-03-01T08:36:43;9.25;;;7.50;;
38779;SDS011;29273;49.962;9.768;2023-03-01T08:39:11;8.57;;;6.88;;
38779;SDS011;29273;49.962;9.768;2023-03-01T08:41:38;9.57;;;7.32;;
38779;SDS011;29273;49.962;9.768;2023-03-01T08:44:04;9.48;;;7.32;;
38779;SDS011;29273;49.962;9.768;2023-03-01T08:46:32;8.90;;;7.25;;
38779;SDS011;29273;49.962;9.768;2023-03-01T08:49:06;8.85;;;7.30;;
38779;SDS011;29273;49.962;9.768;2023-03-01T08:51:36;10.40;;;7.80;;
38779;SDS011;29273;49.962;9.768;2023-03-01T08:54:05;8.90;;;7.07;;
38779;SDS011;29273;49.962;9.768;2023-03-01T08:56:32;10.10;;;7.45;;
38779;SDS011;29273;49.962;9.768;2023-03-01T08:58:58;10.57;;;7.15;;
38779;SDS011;29273;49.962;9.768;2023-03-01T09:01:24;11.27;;;8.15;;
38779;SDS011;29273;49.962;9.768;2023-03-01T09:03:49;10.13;;;7.60;;
38779;SDS011;29273;49.962;9.768;2023-03-01T09:06:15;10.10;;;7.50;;
38779;SDS011;29273;49.962;9.768;2023-03-01T09:08:42;9.48;;;7.53;;
38779;SDS011;29273;49.962;9.768;2023-03-01T09:11:11;10.65;;;8.25;;
38779;SDS011;29273;49.962;9.768;2023-03-01T09:13:38;8.73;;;7.22;;
38779;SDS011;29273;49.962;9.768;2023-03-01T09:16:05;9.02;;;6.95;;
38779;SDS011;29273;49.962;9.768;2023-03-01T09:18:32;10.63;;;7.40;;
38779;SDS011;29273;49.962;9.768;2023-03-01T09:21:07;10.65;;;7.35;;
38779;SDS011;29273;49.962;9.768;2023-03-01T09:23:44;9.75;;;7.55;;
38779;SDS011;29273;49.962;9.768;2023-03-01T09:26:12;9.68;;;7.55;;
38779;SDS011;29273;49.962;9.768;2023-03-01T09:28:41;10.82;;;8.15;;
38779;SDS011;29273;49.962;9.768;2023-03-01T09:31:09;9.65;;;7.70;;
38779;SDS011;29273;49.962;9.768;2023-03-01T09:33:38;8.60;;;6.82;;
38779;SDS011;29273;49.962;9.768;2023-03-01T09:36:05;9.63;;;7.47;;
38779;SDS011;29273;49.962;9.768;2023-03-01T09:38:32;11.00;;;8.40;;
38779;SDS011;29273;49.962;9.768;2023-03-01T09:40:58;9.25;;;7.57;;
38779;SDS011;29273;49.962;9.768;2023-03-01T09:43:59;9.45;;;7.65;;
38779;SDS011;29273;49.962;9.768;2023-03-01T09:46:20;10.98;;;8.27;;
38779;SDS011;29273;49.962;9.768;2023-03-01T09:48:57;10.43;;;7.70;;
38779;SDS011;29273;49.962;9.768;2023-03-01T09:51:31;9.80;;;7.70;;
38779;SDS011;29273;49.962;9.768;2023-03-01T09:53:58;10.60;;;7.43;;
38779;SDS011;29273;49.962;9.768;2023-03-01T09:56:32;9.52;;;7.72;;
38779;SDS011;29273;49.962;9.768;2023-03-01T10:09:37;9.02;;;7.20;;
38779;SDS011;29273;49.962;9.768;2023-03-01T10:12:07;9.43;;;7.43;;
38779;SDS011;29273;49.962;9.768;2023-03-01T10:17:37;8.25;;;6.90;;
38779;SDS011;29273;49.962;9.768;2023-03-01T10:20:12;8.70;;;7.15;;
38779;SDS011;29273;49.962;9.768;2023-03-01T10:22:41;9.20;;;6.78;;
38779;SDS011;29273;49.962;9.768;2023-03-01T10:25:08;8.20;;;6.60;;
38779;SDS011;29273;49.962;9.768;2023-03-01T10:28:02;8.90;;;7.00;;
38779;SDS011;29273;49.962;9.768;2023-03-01T10:30:38;8.95;;;6.90;;
38779;SDS011;29273;49.962;9.768;2023-03-01T10:36:04;7.85;;;6.28;;
38779;SDS011;29273;49.962;9.768;2023-03-01T10:38:31;7.90;;;6.78;;
38779;SDS011;29273;49.962;9.768;2023-03-01T10:41:13;8.75;;;7.22;;
38779;SDS011;29273;49.962;9.768;2023-03-01T10:46:32;9.73;;;7.25;;
38779;SDS011;29273;49.962;9.768;2023-03-01T10:49:21;9.88;;;7.60;;
38779;SDS011;29273;49.962;9.768;2023-03-01T10:51:51;8.70;;;7.07;;
38779;SDS011;29273;49.962;9.768;2023-03-01T10:54:22;8.98;;;7.03;;
38779;SDS011;29273;49.962;9.768;2023-03-01T10:56:53;9.60;;;7.50;;
38779;SDS011;29273;49.962;9.768;2023-03-01T10:59:31;9.80;;;7.82;;
38779;SDS011;29273;49.962;9.768;2023-03-01T11:04:59;7.93;;;6.68;;
38779;SDS011;29273;49.962;9.768;2023-03-01T11:07:48;7.90;;;6.65;;
38779;SDS011;29273;49.962;9.768;2023-03-01T11:10:19;8.85;;;7.10;;
38779;SDS011;29273;49.962;9.768;2023-03-01T11:12:46;7.43;;;6.40;;
38779;SDS011;29273;49.962;9.768;2023-03-01T11:15:19;8.07;;;6.72;;
38779;SDS011;29273;49.962;9.768;2023-03-01T11:17:54;8.38;;;6.88;;
38779;SDS011;29273;49.962;9.768;2023-03-01T11:20:31;8.52;;;7.10;;
38779;SDS011;29273;49.962;9.768;2023-03-01T11:23:01;8.70;;;7.00;;
38779;SDS011;29273;49.962;9.768;2023-03-01T11:25:35;8.85;;;6.82;;
38779;SDS011;29273;49.962;9.768;2023-03-01T11:28:04;7.88;;;6.65;;
38779;SDS011;29273;49.962;9.768;2023-03-01T11:30:38;9.30;;;7.55;;
38779;SDS011;29273;49.962;9.768;2023-03-01T11:33:16;8.77;;;6.80;;
38779;SDS011;29273;49.962;9.768;2023-03-01T11:36:03;8.77;;;7.53;;
38779;SDS011;29273;49.962;9.768;2023-03-01T11:38:32;8.68;;;7.30;;
38779;SDS011;29273;49.962;9.768;2023-03-01T11:44:11;9.05;;;6.78;;
38779;SDS011;29273;49.962;9.768;2023-03-01T11:47:07;7.90;;;6.47;;
38779;SDS011;29273;49.962;9.768;2023-03-01T11:52:21;9.75;;;7.65;;
38779;SDS011;29273;49.962;9.768;2023-03-01T11:55:13;9.70;;;7.63;;
38779;SDS011;29273;49.962;9.768;2023-03-01T12:00:45;9.27;;;7.68;;
38779;SDS011;29273;49.962;9.768;2023-03-01T12:11:39;9.20;;;7.07;;
38779;SDS011;29273;49.962;9.768;2023-03-01T12:14:11;7.97;;;6.85;;
38779;SDS011;29273;49.962;9.768;2023-03-01T12:46:05;7.20;;;6.43;;
38779;SDS011;29273;49.962;9.768;2023-03-01T12:48:53;7.95;;;6.78;;
38779;SDS011;29273;49.962;9.768;2023-03-01T12:51:28;8.35;;;6.65;;
38779;SDS011;29273;49.962;9.768;2023-03-01T12:53:57;9.13;;;7.07;;
38779;SDS011;29273;49.962;9.768;2023-03-01T12:56:28;9.38;;;7.32;;
38779;SDS011;29273;49.962;9.768;2023-03-01T13:13:02;7.68;;;6.05;;
38779;SDS011;29273;49.962;9.768;2023-03-01T13:15:37;7.15;;;6.28;;
38779;SDS011;29273;49.962;9.768;2023-03-01T13:18:27;7.15;;;6.35;;
38779;SDS011;29273;49.962;9.768;2023-03-01T13:20:53;7.57;;;6.18;;
38779;SDS011;29273;49.962;9.768;2023-03-01T13:25:59;10.45;;;7.05;;
38779;SDS011;29273;49.962;9.768;2023-03-01T13:36:08;7.45;;;6.07;;
38779;SDS011;29273;49.962;9.768;2023-03-01T13:38:37;6.70;;;5.97;;
38779;SDS011;29273;49.962;9.768;2023-03-01T13:46:57;6.57;;;5.18;;
38779;SDS011;29273;49.962;9.768;2023-03-01T13:49:29;6.88;;;5.40;;
38779;SDS011;29273;49.962;9.768;2023-03-01T13:57:38;5.97;;;4.65;;
38779;SDS011;29273;49.962;9.768;2023-03-01T14:00:05;6.53;;;5.63;;
38779;SDS011;29273;49.962;9.768;2023-03-01T14:02:32;7.28;;;5.45;;
38779;SDS011;29273;49.962;9.768;2023-03-01T14:05:00;6.30;;;5.18;;
38779;SDS011;29273;49.962;9.768;2023-03-01T14:07:26;6.60;;;5.20;;
38779;SDS011;29273;49.962;9.768;2023-03-01T14:09:57;5.70;;;4.68;;
38779;SDS011;29273;49.962;9.768;2023-03-01T14:18:00;6.13;;;4.60;;
38779;SDS011;29273;49.962;9.768;2023-03-01T14:20:51;5.30;;;3.93;;
38779;SDS011;29273;49.962;9.768;2023-03-01T14:23:18;5.47;;;4.45;;
38779;SDS011;29273;49.962;9.768;2023-03-01T14:25:47;5.30;;;4.45;;
38779;SDS011;29273;49.962;9.768;2023-03-01T14:28:19;7.78;;;4.97;;
38779;SDS011;29273;49.962;9.768;2023-03-01T14:30:46;5.70;;;4.55;;
38779;SDS011;29273;49.962;9.768;2023-03-01T14:33:30;6.40;;;4.88;;
38779;SDS011;29273;49.962;9.768;2023-03-01T14:38:43;4.85;;;4.18;;
38779;SDS011;29273;49.962;9.768;2023-03-01T14:41:17;5.80;;;4.13;;
38779;SDS011;29273;49.962;9.768;2023-03-01T14:43:52;6.25;;;4.47;;
38779;SDS011;29273;49.962;9.768;2023-03-01T14:46:33;5.65;;;4.35;;
38779;SDS011;29273;49.962;9.768;2023-03-01T14:49:17;5.47;;;4.20;;
38779;SDS011;29273;49.962;9.768;2023-03-01T14:51:50;4.13;;;3.58;;
38779;SDS011;29273;49.962;9.768;2023-03-01T14:56:51;5.78;;;3.33;;
38779;SDS011;29273;49.962;9.768;2023-03-01T14:59:21;5.13;;;4.10;;
38779;SDS011;29273;49.962;9.768;2023-03-01T15:01:48;6.13;;;4.10;;
38779;SDS011;29273;49.962;9.768;2023-03-01T15:04:15;4.05;;;3.42;;
38779;SDS011;29273;49.962;9.768;2023-03-01T15:06:41;5.57;;;3.88;;
38779;SDS011;29273;49.962;9.768;2023-03-01T15:09:11;5.13;;;3.90;;
38779;SDS011;29273;49.962;9.768;2023-03-01T15:11:41;5.20;;;3.85;;
38779;SDS011;29273;49.962;9.768;2023-03-01T15:19:53;5.45;;;3.90;;
38779;SDS011;29273;49.962;9.768;2023-03-01T15:22:19;4.75;;;3.50;;
38779;SDS011;29273;49.962;9.768;2023-03-01T15:24:49;6.30;;;3.88;;
38779;SDS011;29273;49.962;9.768;2023-03-01T15:27:20;5.15;;;3.25;;
38779;SDS011;29273;49.962;9.768;2023-03-01T15:34:59;4.93;;;3.80;;
38779;SDS011;29273;49.962;9.768;2023-03-01T15:37:40;4.68;;;4.15;;
38779;SDS011;29273;49.962;9.768;2023-03-01T15:47:52;4.25;;;3.47;;
38779;SDS011;29273;49.962;9.768;2023-03-01T15:50:23;5.47;;;4.00;;
38779;SDS011;29273;49.962;9.768;2023-03-01T15:52:52;4.72;;;3.90;;
38779;SDS011;29273;49.962;9.768;2023-03-01T15:55:20;5.30;;;4.43;;
38779;SDS011;29273;49.962;9.768;2023-03-01T15:57:47;5.22;;;4.65;;
38779;SDS011;29273;49.962;9.768;2023-03-01T16:00:13;5.47;;;4.72;;
38779;SDS011;29273;49.962;9.768;2023-03-01T16:02:40;5.35;;;4.75;;
38779;SDS011;29273;49.962;9.768;2023-03-01T16:05:14;6.88;;;5.40;;
38779;SDS011;29273;49.962;9.768;2023-03-01T16:07:43;6.68;;;5.47;;
38779;SDS011;29273;49.962;9.768;2023-03-01T16:10:09;7.45;;;5.53;;
38779;SDS011;29273;49.962;9.768;2023-03-01T16:12:35;6.03;;;4.53;;
38779;SDS011;29273;49.962;9.768;2023-03-01T16:15:00;6.82;;;5.30;;
38779;SDS011;29273;49.962;9.768;2023-03-01T16:17:25;6.68;;;5.03;;
38779;SDS011;29273;49.962;9.768;2023-03-01T16:19:51;6.55;;;5.10;;
38779;SDS011;29273;49.962;9.768;2023-03-01T16:22:17;6.68;;;5.22;;
38779;SDS011;29273;49.962;9.768;2023-03-01T16:24:42;6.93;;;4.93;;
38779;SDS011;29273;49.962;9.768;2023-03-01T16:27:08;6.45;;;4.80;;
38779;SDS011;29273;49.962;9.768;2023-03-01T16:29:33;5.70;;;4.80;;
38779;SDS011;29273;49.962;9.768;2023-03-01T16:32:02;5.75;;;4.63;;
38779;SDS011;29273;49.962;9.768;2023-03-01T16:34:27;7.35;;;5.45;;
38779;SDS011;29273;49.962;9.768;2023-03-01T16:36:53;6.07;;;5.10;;
38779;SDS011;29273;49.962;9.768;2023-03-01T16:39:18;7.25;;;5.88;;
38779;SDS011;29273;49.962;9.768;2023-03-01T16:41:45;8.52;;;6.10;;
38779;SDS011;29273;49.962;9.768;2023-03-01T16:44:10;7.22;;;5.88;;
38779;SDS011;29273;49.962;9.768;2023-03-01T16:46:36;7.47;;;5.65;;
38779;SDS011;29273;49.962;9.768;2023-03-01T16:49:01;7.10;;;5.75;;
38779;SDS011;29273;49.962;9.768;2023-03-01T16:51:28;7.80;;;5.80;;
38779;SDS011;29273;49.962;9.768;2023-03-01T16:53:54;9.05;;;6.10;;
38779;SDS011;29273;49.962;9.768;2023-03-01T16:56:20;8.32;;;6.28;;
38779;SDS011;29273;49.962;9.768;2023-03-01T16:58:45;8.82;;;6.75;;
38779;SDS011;29273;49.962;9.768;2023-03-01T17:01:12;7.40;;;6.07;;
38779;SDS011;29273;49.962;9.768;2023-03-01T17:03:42;8.63;;;6.38;;
38779;SDS011;29273;49.962;9.768;2023-03-01T17:06:12;7.82;;;6.47;;
38779;SDS011;29273;49.962;9.768;2023-03-01T17:08:39;7.07;;;5.60;;
38779;SDS011;29273;49.962;9.768;2023-03-01T17:11:09;7.43;;;6.18;;
38779;SDS011;29273;49.962;9.768;2023-03-01T17:13:37;7.77;;;5.93;;
38779;SDS011;29273;49.962;9.768;2023-03-01T17:16:04;6.95;;;5.75;;
38779;SDS011;29273;49.962;9.768;2023-03-01T17:18:31;8.25;;;6.07;;
38779;SDS011;29273;49.962;9.768;2023-03-01T17:20:57;8.57;;;6.22;;
38779;SDS011;29273;49.962;9.768;2023-03-01T17:23:23;7.68;;;5.88;;
38779;SDS011;29273;49.962;9.768;2023-03-01T17:25:49;7.28;;;5.80;;